Time;durP1;ratioP1;P1;durP2;ratioP2;P2;SDS_P1;SDS_P2;PMS_P1;PMS_P2;Temp;Humidity;BMP_temperature;BMP_pressure;BME280_temperature;BME280_humidity;BME280_pressure;Samples;Min_cycle;Max_cycle;Signal;HPM_P1;HPM_P2
2024/03/03 00:01:03;;;;;;;2.25;1.83;;;9.50;99.90;;;;;;4426859;32;20078;-66
2024/03/03 00:03:28;;;;;;;1.55;1.27;;;9.50;99.90;;;;;;4425969;32;20064;-66
2024/03/03 00:05:54;;;;;;;9.07;2.03;;;9.60;99.90;;;;;;4426978;32;20057;-65
2024/03/03 00:08:21;;;;;;;3.40;1.40;;;9.50;99.90;;;;;;4399220;32;20085;-66
2024/03/03 00:10:47;;;;;;;5.82;2.25;;;9.50;99.90;;;;;;4423055;32;20070;-65
2024/03/03 00:13:12;;;;;;;0.88;0.88;;;9.50;99.90;;;;;;4426888;32;20069;-66
2024/03/03 00:15:38;;;;;;;5.90;2.15;;;9.50;99.90;;;;;;4427091;32;20156;-66
2024/03/03 00:18:05;;;;;;;1.77;1.40;;;9.50;99.90;;;;;;4425825;32;20087;-66
2024/03/03 00:20:30;;;;;;;10.98;3.03;;;9.50;99.90;;;;;;4427494;32;20093;-67
2024/03/03 00:22:55;;;;;;;1.23;1.12;;;9.50;99.90;;;;;;4417285;32;21146;-66
2024/03/03 00:25:21;;;;;;;7.28;1.95;;;9.40;99.90;;;;;;4434655;32;20065;-65
2024/03/03 00:27:46;;;;;;;1.98;1.00;;;9.50;99.90;;;;;;4428683;32;20196;-66
2024/03/03 00:30:12;;;;;;;3.37;1.35;;;9.50;99.90;;;;;;4417688;32;20074;-66
2024/03/03 00:32:38;;;;;;;2.15;1.02;;;9.50;99.90;;;;;;4431411;32;20061;-66
2024/03/03 00:35:04;;;;;;;3.03;1.70;;;9.50;99.90;;;;;;4415702;32;20065;-66
2024/03/03 00:37:29;;;;;;;2.60;1.50;;;9.50;99.90;;;;;;4415540;32;20514;-65
2024/03/03 00:39:55;;;;;;;3.40;1.92;;;9.60;99.90;;;;;;4429633;32;20077;-66
2024/03/03 00:42:20;;;;;;;5.75;2.78;;;9.60;99.90;;;;;;4427166;32;20085;-65
2024/03/03 00:44:46;;;;;;;3.62;2.28;;;9.60;99.90;;;;;;4428443;32;20768;-65
2024/03/03 00:47:11;;;;;;;2.22;1.17;;;9.60;99.90;;;;;;4425999;32;20107;-65
2024/03/03 00:49:36;;;;;;;2.10;1.50;;;9.60;99.90;;;;;;4425373;32;20505;-65
2024/03/03 00:52:02;;;;;;;21.25;2.42;;;9.60;99.90;;;;;;4425679;32;20116;-67
2024/03/03 00:54:28;;;;;;;10.60;2.30;;;9.60;99.90;;;;;;4415527;32;20061;-64
2024/03/03 00:56:53;;;;;;;4.37;1.73;;;9.60;99.90;;;;;;4429383;32;20081;-66
2024/03/03 00:59:19;;;;;;;4.25;2.37;;;9.60;99.90;;;;;;4424715;32;20560;-66
2024/03/03 01:01:44;;;;;;;3.62;1.90;;;9.60;99.90;;;;;;4428292;32;20092;-62
2024/03/03 01:04:10;;;;;;;7.53;1.60;;;9.60;99.90;;;;;;4416316;32;20061;-62
2024/03/03 01:06:36;;;;;;;3.17;2.03;;;9.60;99.90;;;;;;4417383;32;20129;-62
2024/03/03 01:09:01;;;;;;;4.43;2.12;;;9.60;99.90;;;;;;4427456;32;20560;-62
2024/03/03 01:11:27;;;;;;;19.10;2.15;;;9.60;99.90;;;;;;4427224;32;20056;-62
2024/03/03 01:13:52;;;;;;;5.28;1.90;;;9.60;99.90;;;;;;4425267;32;20148;-62
2024/03/03 01:16:20;;;;;;;1.48;1.17;;;9.60;99.90;;;;;;4413373;32;20490;-62
2024/03/03 01:18:45;;;;;;;14.20;1.75;;;9.60;99.90;;;;;;4427332;32;20061;-62
2024/03/03 01:21:12;;;;;;;6.70;2.42;;;9.50;99.90;;;;;;4426074;32;20445;-61
2024/03/03 01:23:37;;;;;;;1.65;1.40;;;9.50;99.90;;;;;;4413568;32;20774;-62
2024/03/03 01:26:03;;;;;;;4.82;1.92;;;9.50;99.90;;;;;;4428505;32;20062;-63
2024/03/03 01:28:28;;;;;;;1.90;1.48;;;9.50;99.90;;;;;;4427886;32;20549;-61
2024/03/03 01:30:55;;;;;;;4.25;1.65;;;9.40;99.90;;;;;;4416897;32;20151;-63
2024/03/03 01:33:20;;;;;;;4.47;1.70;;;9.40;99.90;;;;;;4426352;32;20069;-63
2024/03/03 01:35:48;;;;;;;8.40;2.62;;;9.40;99.90;;;;;;4429760;32;20078;-62
2024/03/03 01:38:14;;;;;;;1.80;1.50;;;9.30;99.90;;;;;;4429321;32;20077;-63
2024/03/03 01:40:39;;;;;;;3.40;1.80;;;9.30;99.90;;;;;;4428260;32;20081;-63
2024/03/03 01:43:06;;;;;;;5.72;2.22;;;9.20;99.90;;;;;;4427040;32;20077;-61
2024/03/03 01:45:32;;;;;;;2.55;1.90;;;9.20;99.90;;;;;;4429137;32;20120;-63
2024/03/03 01:47:57;;;;;;;11.60;2.65;;;9.10;99.90;;;;;;4412350;32;20478;-63
2024/03/03 01:50:25;;;;;;;4.93;2.47;;;9.10;99.90;;;;;;4427430;32;20525;-63
2024/03/03 01:52:55;;;;;;;8.93;2.35;;;9.00;99.90;;;;;;4430307;32;20410;-63
2024/03/03 01:55:22;;;;;;;1.23;1.08;;;9.00;99.90;;;;;;4426514;32;20066;-63
2024/03/03 01:57:50;;;;;;;6.15;2.80;;;9.00;99.90;;;;;;4424421;32;20062;-63
2024/03/03 02:00:16;;;;;;;7.62;1.58;;;9.00;99.90;;;;;;4414355;32;20638;-63
2024/03/03 02:02:44;;;;;;;6.32;1.92;;;9.00;99.90;;;;;;4425733;32;20064;-60
2024/03/03 02:05:12;;;;;;;3.03;2.03;;;8.90;99.90;;;;;;4428788;32;20081;-63
2024/03/03 02:07:38;;;;;;;2.55;1.90;;;8.90;99.90;;;;;;4426667;32;20072;-62
2024/03/03 02:10:07;;;;;;;8.85;2.80;;;8.90;99.90;;;;;;4414634;32;20065;-62
2024/03/03 02:12:34;;;;;;;4.53;1.70;;;8.90;99.90;;;;;;4424382;32;20077;-63
2024/03/03 02:14:59;;;;;;;2.15;1.62;;;8.90;99.90;;;;;;4426044;32;20064;-63
2024/03/03 02:17:25;;;;;;;2.50;1.30;;;8.90;99.90;;;;;;4426254;32;20156;-61
2024/03/03 02:19:50;;;;;;;4.80;2.10;;;8.90;99.90;;;;;;4428977;32;20167;-63
2024/03/03 02:22:16;;;;;;;4.70;1.98;;;8.80;99.90;;;;;;4427908;32;20513;-63
2024/03/03 02:24:41;;;;;;;11.98;2.78;;;8.80;99.90;;;;;;4426895;32;20069;-59
2024/03/03 02:27:09;;;;;;;5.68;2.00;;;8.80;99.90;;;;;;4426863;32;20097;-62
2024/03/03 02:29:34;;;;;;;3.28;1.73;;;8.80;99.90;;;;;;4427242;32;20076;-61
2024/03/03 02:32:00;;;;;;;2.22;1.67;;;8.80;99.90;;;;;;4425495;32;20123;-61
2024/03/03 02:34:25;;;;;;;1.85;1.75;;;8.70;99.90;;;;;;4427802;32;20532;-60
2024/03/03 02:36:51;;;;;;;4.03;1.98;;;8.70;99.90;;;;;;4427004;32;20077;-62
2024/03/03 02:39:16;;;;;;;5.80;2.03;;;8.70;99.90;;;;;;4424589;32;20442;-60
2024/03/03 02:41:42;;;;;;;3.08;1.12;;;8.60;99.90;;;;;;4423757;32;20077;-63
2024/03/03 02:44:07;;;;;;;3.72;2.37;;;8.60;99.90;;;;;;4426423;32;20509;-61
2024/03/03 02:46:32;;;;;;;2.80;1.73;;;8.50;99.90;;;;;;4425513;32;20069;-62
2024/03/03 02:48:58;;;;;;;3.28;1.87;;;8.60;99.90;;;;;;4423154;32;20108;-59
2024/03/03 02:51:26;;;;;;;5.12;2.37;;;8.60;99.90;;;;;;4413915;32;20064;-61
2024/03/03 02:53:52;;;;;;;2.72;1.90;;;8.50;99.90;;;;;;4428459;32;20089;-62
2024/03/03 02:56:17;;;;;;;5.95;1.00;;;8.50;99.90;;;;;;4428768;32;20070;-62
2024/03/03 02:58:43;;;;;;;2.53;1.75;;;8.50;99.90;;;;;;4424247;32;20403;-61
2024/03/03 03:01:08;;;;;;;3.40;2.17;;;8.50;99.90;;;;;;4425456;32;20089;-61
2024/03/03 03:03:34;;;;;;;3.03;2.35;;;8.50;99.90;;;;;;4428191;32;20058;-64
2024/03/03 03:05:59;;;;;;;19.40;4.37;;;8.50;99.90;;;;;;4425207;32;20065;-62
2024/03/03 03:08:25;;;;;;;2.05;1.85;;;8.50;99.90;;;;;;4426763;32;20085;-62
2024/03/03 03:10:51;;;;;;;8.13;3.05;;;8.50;99.90;;;;;;4427011;32;20076;-61
2024/03/03 03:13:16;;;;;;;4.68;2.25;;;8.50;99.90;;;;;;4428645;32;20077;-63
2024/03/03 03:15:41;;;;;;;2.65;2.17;;;8.50;99.90;;;;;;4425973;32;20077;-61
2024/03/03 03:18:07;;;;;;;1.70;1.55;;;8.50;99.90;;;;;;4428109;32;20072;-63
2024/03/03 03:20:34;;;;;;;1.92;1.48;;;8.40;99.90;;;;;;4411242;32;20069;-65
2024/03/03 03:22:59;;;;;;;3.85;1.60;;;8.40;99.90;;;;;;4428059;32;20124;-62
2024/03/03 03:25:24;;;;;;;4.60;1.60;;;8.40;99.90;;;;;;4428282;32;20077;-62
2024/03/03 03:27:50;;;;;;;19.37;3.22;;;8.40;99.90;;;;;;4425202;32;20089;-61
2024/03/03 03:30:15;;;;;;;10.32;2.08;;;8.40;99.90;;;;;;4425054;32;20541;-61
2024/03/03 03:32:41;;;;;;;3.05;2.05;;;8.40;99.90;;;;;;4426293;32;20224;-60
2024/03/03 03:35:09;;;;;;;17.85;2.08;;;8.40;99.90;;;;;;4427735;32;20065;-61
2024/03/03 03:37:35;;;;;;;8.35;2.28;;;8.40;99.90;;;;;;4414108;32;20073;-61
2024/03/03 03:40:03;;;;;;;3.35;2.33;;;8.40;99.90;;;;;;4425407;32;20120;-61
2024/03/03 03:42:29;;;;;;;5.85;2.40;;;8.30;99.90;;;;;;4427214;32;20139;-63
2024/03/03 03:44:54;;;;;;;1.77;1.42;;;8.40;99.90;;;;;;4428020;32;20525;-61
2024/03/03 03:47:20;;;;;;;2.37;1.75;;;8.40;99.90;;;;;;4414010;32;20069;-62
2024/03/03 03:49:45;;;;;;;1.45;1.35;;;8.40;99.90;;;;;;4426592;32;20080;-63
2024/03/03 03:52:10;;;;;;;3.58;1.73;;;8.40;99.90;;;;;;4424744;32;20065;-61
2024/03/03 03:54:36;;;;;;;10.77;2.12;;;8.40;99.90;;;;;;4425913;32;20060;-61
2024/03/03 03:57:01;;;;;;;7.55;2.28;;;8.40;99.90;;;;;;4426469;32;20076;-61
2024/03/03 03:59:27;;;;;;;9.18;3.62;;;8.40;99.90;;;;;;4421713;32;20169;-63
2024/03/03 04:01:54;;;;;;;15.18;3.45;;;8.50;99.90;;;;;;4424895;32;20580;-61
2024/03/03 04:04:20;;;;;;;4.82;2.12;;;8.50;99.90;;;;;;4427251;32;20119;-63
2024/03/03 04:06:45;;;;;;;11.90;2.53;;;8.40;99.90;;;;;;4423404;32;20072;-63
2024/03/03 04:09:12;;;;;;;5.10;2.15;;;8.50;99.90;;;;;;4423369;32;20525;-61
2024/03/03 04:11:37;;;;;;;5.10;2.53;;;8.40;99.90;;;;;;4424932;32;20081;-61
2024/03/03 04:14:03;;;;;;;2.22;1.90;;;8.40;99.90;;;;;;4425318;32;20521;-63
2024/03/03 04:16:28;;;;;;;2.47;1.77;;;8.40;99.90;;;;;;4426401;32;20521;-62
2024/03/03 04:18:54;;;;;;;5.45;2.22;;;8.40;99.90;;;;;;4426892;32;20081;-61
2024/03/03 04:21:20;;;;;;;3.87;2.30;;;8.40;99.90;;;;;;4422654;32;20275;-61
2024/03/03 04:23:45;;;;;;;22.95;2.47;;;8.40;99.90;;;;;;4425403;32;20191;-62
2024/03/03 04:26:12;;;;;;;9.93;2.90;;;8.40;99.90;;;;;;4426326;32;20069;-61
2024/03/03 04:28:38;;;;;;;2.80;1.90;;;8.40;99.90;;;;;;4414103;32;20068;-61
2024/03/03 04:31:05;;;;;;;5.93;2.95;;;8.40;99.90;;;;;;4425019;32;20481;-62
2024/03/03 04:33:32;;;;;;;2.22;1.67;;;8.40;99.90;;;;;;4426161;32;20439;-66
2024/03/03 04:35:57;;;;;;;4.18;2.00;;;8.40;99.90;;;;;;4425000;32;20097;-65
2024/03/03 04:38:23;;;;;;;6.05;2.03;;;8.40;99.90;;;;;;4408461;32;20793;-66
2024/03/03 04:40:48;;;;;;;14.25;1.65;;;8.40;99.90;;;;;;4423464;32;20074;-66
2024/03/03 04:43:14;;;;;;;4.12;1.92;;;8.40;99.90;;;;;;4422255;32;21224;-64
2024/03/03 04:45:39;;;;;;;4.82;2.47;;;8.40;99.90;;;;;;4425735;32;20108;-66
2024/03/03 04:48:05;;;;;;;3.15;1.98;;;8.40;99.90;;;;;;4425784;32;20077;-66
2024/03/03 04:50:31;;;;;;;6.00;2.47;;;8.50;99.90;;;;;;4426487;32;20068;-66
2024/03/03 04:52:56;;;;;;;4.15;2.00;;;8.50;99.90;;;;;;4426008;32;20644;-67
2024/03/03 04:55:21;;;;;;;3.85;2.45;;;8.50;99.90;;;;;;4426947;32;20069;-66
2024/03/03 04:57:47;;;;;;;2.72;2.00;;;8.50;99.90;;;;;;4424055;32;20093;-66
2024/03/03 05:00:14;;;;;;;3.60;2.37;;;8.50;99.90;;;;;;4426441;32;20058;-66
2024/03/03 05:02:39;;;;;;;2.62;1.65;;;8.50;99.90;;;;;;4426251;32;20061;-66
2024/03/03 05:05:06;;;;;;;12.40;3.92;;;8.50;99.90;;;;;;4427854;32;20533;-66
2024/03/03 05:07:33;;;;;;;5.57;2.60;;;8.50;99.90;;;;;;4430201;32;20061;-66
2024/03/03 05:09:58;;;;;;;3.22;1.92;;;8.50;99.90;;;;;;4429952;32;20082;-66
2024/03/03 05:12:24;;;;;;;8.00;3.42;;;8.50;99.90;;;;;;4430276;32;20512;-65
2024/03/03 05:14:49;;;;;;;6.95;2.75;;;8.50;99.90;;;;;;4426652;32;20512;-66
2024/03/03 05:17:15;;;;;;;1.50;1.40;;;8.40;99.90;;;;;;4427589;32;20065;-66
2024/03/03 05:19:40;;;;;;;4.20;2.22;;;8.40;99.90;;;;;;4426050;32;20082;-66
2024/03/03 05:22:06;;;;;;;6.05;2.85;;;8.40;99.90;;;;;;4427125;32;21103;-64
2024/03/03 05:24:31;;;;;;;0.95;0.93;;;8.50;99.90;;;;;;4426553;32;20073;-64
2024/03/03 05:26:57;;;;;;;7.43;2.30;;;8.50;99.90;;;;;;4427926;32;20162;-65
2024/03/03 05:29:22;;;;;;;3.03;1.90;;;8.40;99.90;;;;;;4427500;32;20066;-65
2024/03/03 05:31:48;;;;;;;4.87;1.98;;;8.40;99.90;;;;;;4421560;32;20069;-65
2024/03/03 05:34:13;;;;;;;4.20;2.67;;;8.40;99.90;;;;;;4425386;32;20094;-63
2024/03/03 05:36:42;;;;;;;1.65;1.45;;;8.50;99.90;;;;;;4423873;32;20056;-65
2024/03/03 05:39:09;;;;;;;1.35;1.25;;;8.40;99.90;;;;;;4413458;32;20066;-65
2024/03/03 05:41:35;;;;;;;2.12;1.62;;;8.40;99.90;;;;;;4410394;32;20830;-65
2024/03/03 05:44:01;;;;;;;1.37;1.10;;;8.40;99.90;;;;;;4421805;32;20070;-65
2024/03/03 05:46:27;;;;;;;10.10;2.42;;;8.40;99.90;;;;;;4427337;32;20065;-64
2024/03/03 05:48:52;;;;;;;3.62;2.05;;;8.50;99.90;;;;;;4430196;32;20089;-65
2024/03/03 05:51:18;;;;;;;5.32;1.95;;;8.50;99.90;;;;;;4426284;32;20161;-65
2024/03/03 05:53:43;;;;;;;1.98;1.80;;;8.50;99.90;;;;;;4412156;32;20061;-64
2024/03/03 05:56:13;;;;;;;5.25;3.00;;;8.50;99.90;;;;;;4427073;32;20073;-65
2024/03/03 05:58:39;;;;;;;1.73;1.30;;;8.50;99.90;;;;;;4427969;32;20066;-65
2024/03/03 06:01:04;;;;;;;4.72;1.30;;;8.50;99.90;;;;;;4426662;32;20074;-66
2024/03/03 06:03:30;;;;;;;8.23;3.22;;;8.50;99.90;;;;;;4424251;32;20053;-64
2024/03/03 06:05:55;;;;;;;5.07;2.60;;;8.60;99.90;;;;;;4431919;32;20462;-66
2024/03/03 06:08:21;;;;;;;2.60;2.37;;;8.60;99.90;;;;;;4428628;32;20081;-65
2024/03/03 06:10:46;;;;;;;8.57;2.70;;;8.70;99.90;;;;;;4427031;32;20092;-65
2024/03/03 06:13:12;;;;;;;9.13;3.35;;;8.60;99.90;;;;;;4425821;32;20089;-66
2024/03/03 06:15:38;;;;;;;3.03;2.17;;;8.70;99.90;;;;;;4428990;32;20520;-64
2024/03/03 06:18:04;;;;;;;5.18;2.12;;;8.60;99.90;;;;;;4415503;32;20086;-65
2024/03/03 06:20:29;;;;;;;8.65;4.47;;;8.70;99.90;;;;;;4426907;32;20516;-65
2024/03/03 06:22:55;;;;;;;3.95;2.40;;;8.70;99.90;;;;;;4427751;32;20060;-65
2024/03/03 06:25:20;;;;;;;3.42;1.98;;;8.80;99.90;;;;;;4426337;32;20592;-65
2024/03/03 06:27:46;;;;;;;5.10;2.83;;;8.80;99.90;;;;;;4424262;32;20077;-65
2024/03/03 06:30:14;;;;;;;1.58;1.37;;;8.80;99.90;;;;;;4425528;32;20320;-66
2024/03/03 06:32:40;;;;;;;3.95;1.98;;;8.80;99.90;;;;;;4426846;32;20516;-64
2024/03/03 06:35:06;;;;;;;33.55;3.00;;;8.80;99.90;;;;;;4430354;32;20125;-65
2024/03/03 06:37:33;;;;;;;25.45;2.65;;;8.80;99.90;;;;;;4427475;32;20081;-64
2024/03/03 06:39:59;;;;;;;4.70;2.50;;;8.80;99.90;;;;;;4426637;32;20049;-65
2024/03/03 06:42:24;;;;;;;4.85;2.05;;;8.90;99.90;;;;;;4422146;32;20065;-65
2024/03/03 06:44:50;;;;;;;10.40;4.95;;;8.90;99.90;;;;;;4424267;32;20147;-66
2024/03/03 06:47:16;;;;;;;4.32;3.05;;;8.90;99.90;;;;;;4423898;32;20065;-63
2024/03/03 06:49:42;;;;;;;3.03;1.75;;;8.90;99.90;;;;;;4429080;32;20072;-66
2024/03/03 06:52:08;;;;;;;13.45;3.33;;;8.90;99.90;;;;;;4426421;32;20520;-62
2024/03/03 06:54:34;;;;;;;4.22;2.15;;;9.00;99.90;;;;;;4430102;32;20633;-61
2024/03/03 06:56:59;;;;;;;6.78;2.65;;;9.10;99.90;;;;;;4414440;32;20124;-62
2024/03/03 06:59:26;;;;;;;13.18;2.62;;;9.10;99.90;;;;;;4429732;32;20521;-61
2024/03/03 07:01:53;;;;;;;8.48;1.62;;;9.10;99.90;;;;;;4425006;32;20090;-61
2024/03/03 07:04:23;;;;;;;5.00;2.53;;;9.20;99.90;;;;;;4415524;32;20482;-62
2024/03/03 07:06:51;;;;;;;3.72;2.78;;;9.20;99.90;;;;;;4424872;32;20112;-62
2024/03/03 07:09:18;;;;;;;11.75;3.70;;;9.30;99.90;;;;;;4425540;32;20082;-62
2024/03/03 07:11:45;;;;;;;3.58;2.05;;;9.30;99.90;;;;;;4429182;32;20077;-62
2024/03/03 07:14:12;;;;;;;5.30;2.78;;;9.30;99.90;;;;;;4423891;32;20065;-62
2024/03/03 07:16:38;;;;;;;3.42;1.85;;;9.40;99.90;;;;;;4429837;32;20057;-62
2024/03/03 07:19:03;;;;;;;7.80;2.83;;;9.40;99.90;;;;;;4429751;32;20073;-62
2024/03/03 07:21:30;;;;;;;3.60;2.55;;;9.40;99.90;;;;;;4418022;32;20094;-61
2024/03/03 07:23:56;;;;;;;4.95;2.80;;;9.40;99.90;;;;;;4428614;32;20331;-62
2024/03/03 07:26:22;;;;;;;3.92;2.55;;;9.40;99.90;;;;;;4427047;32;20065;-63
2024/03/03 07:28:47;;;;;;;3.92;2.17;;;9.40;99.90;;;;;;4424564;32;20064;-61
2024/03/03 07:31:13;;;;;;;4.12;2.12;;;9.50;99.90;;;;;;4427779;32;20108;-62
2024/03/03 07:33:39;;;;;;;6.68;3.00;;;9.60;99.90;;;;;;4427770;32;20085;-61
2024/03/03 07:36:05;;;;;;;9.43;3.60;;;9.60;99.90;;;;;;4429453;32;20435;-62
2024/03/03 07:38:31;;;;;;;5.20;2.40;;;9.70;99.90;;;;;;4427080;32;20077;-62
2024/03/03 07:40:57;;;;;;;5.68;2.12;;;9.70;99.90;;;;;;4427668;32;20789;-61
2024/03/03 07:43:25;;;;;;;4.00;2.55;;;9.80;99.90;;;;;;4425635;32;20090;-62
2024/03/03 07:45:50;;;;;;;2.25;1.55;;;9.90;99.90;;;;;;4427838;32;20239;-62
2024/03/03 07:48:16;;;;;;;3.35;2.05;;;9.90;99.90;;;;;;4430947;32;20061;-62
2024/03/03 07:50:41;;;;;;;3.58;2.15;;;10.00;99.90;;;;;;4428761;32;20061;-62
2024/03/03 07:53:09;;;;;;;5.22;2.70;;;10.00;99.90;;;;;;4428975;32;20074;-62
2024/03/03 07:55:35;;;;;;;5.43;2.62;;;10.10;99.90;;;;;;4429677;32;20090;-62
2024/03/03 07:58:01;;;;;;;3.42;1.92;;;10.10;99.90;;;;;;4412357;32;20576;-62
2024/03/03 08:00:33;;;;;;;8.20;2.42;;;10.20;99.90;;;;;;4431054;32;20057;-62
2024/03/03 08:03:01;;;;;;;2.45;1.42;;;10.30;99.90;;;;;;4417265;32;20066;-60
2024/03/03 08:05:27;;;;;;;8.02;3.00;;;10.30;99.90;;;;;;4428792;32;20078;-60
2024/03/03 08:07:54;;;;;;;6.15;2.40;;;10.50;99.90;;;;;;4424743;32;20128;-60
2024/03/03 08:10:19;;;;;;;2.85;1.90;;;10.60;99.90;;;;;;4425906;32;20413;-60
2024/03/03 08:12:45;;;;;;;3.97;2.33;;;10.70;99.90;;;;;;4422919;32;20137;-60
2024/03/03 08:15:10;;;;;;;2.95;1.52;;;10.70;99.90;;;;;;4426274;32;20175;-61
2024/03/03 08:17:36;;;;;;;17.48;2.00;;;10.80;99.90;;;;;;4428526;32;20099;-62
2024/03/03 08:20:02;;;;;;;5.50;2.72;;;10.90;99.90;;;;;;4430327;32;20171;-63
2024/03/03 08:22:27;;;;;;;6.35;2.90;;;10.90;99.90;;;;;;4428850;32;20786;-60
2024/03/03 08:24:54;;;;;;;12.77;2.28;;;11.00;99.90;;;;;;4430449;32;20410;-60
2024/03/03 08:27:19;;;;;;;3.62;1.90;;;11.10;99.90;;;;;;4429412;32;20085;-61
2024/03/03 08:29:45;;;;;;;2.08;1.42;;;11.10;99.90;;;;;;4426705;32;20082;-62
2024/03/03 08:32:10;;;;;;;2.70;1.75;;;11.20;99.90;;;;;;4427521;32;20069;-61
2024/03/03 08:34:36;;;;;;;7.55;1.90;;;11.20;99.90;;;;;;4427365;32;20419;-62
2024/03/03 08:37:02;;;;;;;21.08;2.47;;;11.30;99.90;;;;;;4424757;32;20432;-64
2024/03/03 08:39:28;;;;;;;4.43;2.20;;;11.40;99.90;;;;;;4424588;32;20068;-61
2024/03/03 08:41:53;;;;;;;2.72;1.15;;;11.50;99.90;;;;;;4422983;32;20061;-62
2024/03/03 08:44:19;;;;;;;7.05;3.12;;;11.60;99.90;;;;;;4425190;32;20074;-61
2024/03/03 08:46:45;;;;;;;6.35;2.67;;;11.70;99.90;;;;;;4414088;32;20139;-62
2024/03/03 08:49:11;;;;;;;1.10;1.00;;;11.80;99.90;;;;;;4424125;32;20105;-62
2024/03/03 08:51:39;;;;;;;2.03;1.52;;;11.90;99.90;;;;;;4415932;32;20076;-62
2024/03/03 08:54:05;;;;;;;4.60;1.65;;;11.90;99.90;;;;;;4426521;32;20078;-63
2024/03/03 08:56:30;;;;;;;6.87;2.83;;;12.00;99.90;;;;;;4429835;32;20064;-62
2024/03/03 08:58:56;;;;;;;6.90;3.42;;;12.00;99.90;;;;;;4427627;32;20060;-61
2024/03/03 09:01:21;;;;;;;4.40;1.80;;;12.20;99.90;;;;;;4427485;32;20093;-60
2024/03/03 09:03:48;;;;;;;3.28;1.95;;;12.20;99.90;;;;;;4432163;32;20089;-61
2024/03/03 09:06:14;;;;;;;4.57;1.83;;;12.30;99.90;;;;;;4430245;32;20073;-61
2024/03/03 09:08:40;;;;;;;2.15;1.40;;;12.40;99.90;;;;;;4425793;32;20080;-61
2024/03/03 09:11:06;;;;;;;4.47;2.20;;;12.60;99.90;;;;;;4415972;32;21198;-60
2024/03/03 09:13:34;;;;;;;2.58;1.62;;;12.70;99.90;;;;;;4429500;32;20095;-62
2024/03/03 09:16:00;;;;;;;7.20;2.53;;;12.60;99.90;;;;;;4429814;32;20062;-63
2024/03/03 09:18:25;;;;;;;1.95;1.77;;;12.70;99.90;;;;;;4430160;32;20077;-63
2024/03/03 09:20:51;;;;;;;6.25;1.45;;;12.70;99.90;;;;;;4427369;32;20094;-62
2024/03/03 09:23:16;;;;;;;1.58;1.27;;;12.80;99.90;;;;;;4430183;32;20061;-64
2024/03/03 09:25:42;;;;;;;5.28;2.08;;;12.90;99.90;;;;;;4427284;32;20433;-63
2024/03/03 09:28:07;;;;;;;3.95;1.87;;;13.00;99.90;;;;;;4428252;32;20061;-63
2024/03/03 09:30:34;;;;;;;10.82;1.40;;;13.20;99.90;;;;;;4416360;32;20079;-62
2024/03/03 09:32:59;;;;;;;2.37;1.85;;;13.30;99.90;;;;;;4429073;32;20061;-63
2024/03/03 09:35:26;;;;;;;1.65;0.90;;;13.40;99.90;;;;;;4427517;32;20565;-62
2024/03/03 09:37:52;;;;;;;3.75;2.53;;;13.50;99.90;;;;;;4426362;32;20082;-62
2024/03/03 09:40:21;;;;;;;1.55;1.40;;;13.50;99.90;;;;;;4415189;32;20090;-62
2024/03/03 09:42:51;;;;;;;24.20;3.25;;;13.50;99.90;;;;;;4427144;32;20528;-63
2024/03/03 09:45:20;;;;;;;1.52;1.30;;;13.70;99.90;;;;;;4429330;32;20124;-63
2024/03/03 09:47:49;;;;;;;8.15;1.98;;;13.90;99.90;;;;;;4416885;32;20065;-63
2024/03/03 09:50:15;;;;;;;2.25;1.08;;;14.10;99.90;;;;;;4416451;32;20506;-62
2024/03/03 09:52:42;;;;;;;1.20;1.05;;;14.10;99.90;;;;;;4430703;32;20089;-62
2024/03/03 09:55:10;;;;;;;9.13;1.77;;;14.20;99.90;;;;;;4415668;32;20169;-62
2024/03/03 09:57:37;;;;;;;5.47;1.48;;;14.40;99.90;;;;;;4415109;32;20093;-63
2024/03/03 10:00:04;;;;;;;2.40;1.85;;;14.40;99.90;;;;;;4428094;32;20099;-62
2024/03/03 10:02:32;;;;;;;2.20;0.70;;;14.40;99.90;;;;;;4431331;32;20152;-62
2024/03/03 10:04:58;;;;;;;7.28;1.55;;;14.50;99.90;;;;;;4430883;32;20082;-62
2024/03/03 10:07:24;;;;;;;4.47;1.25;;;14.60;99.90;;;;;;4412014;32;20057;-62
2024/03/03 10:09:58;;;;;;;1.15;1.08;;;14.70;99.90;;;;;;4428693;32;20529;-62
2024/03/03 10:12:26;;;;;;;4.72;2.10;;;14.80;99.90;;;;;;4430340;32;20120;-63
2024/03/03 10:14:55;;;;;;;1.27;1.17;;;14.80;99.90;;;;;;4429814;32;20112;-63
2024/03/03 10:17:21;;;;;;;4.62;1.92;;;14.90;99.90;;;;;;4428561;32;20093;-63
2024/03/03 10:19:46;;;;;;;1.10;0.98;;;15.10;99.90;;;;;;4427943;32;20441;-63
2024/03/03 10:22:18;;;;;;;3.35;1.45;;;15.30;99.90;;;;;;4426981;32;20086;-63
2024/03/03 10:24:44;;;;;;;4.07;1.67;;;15.40;99.90;;;;;;4425940;32;20085;-63
2024/03/03 10:27:16;;;;;;;0.77;0.77;;;15.40;99.90;;;;;;4409291;32;20112;-63
2024/03/03 10:29:43;;;;;;;8.18;1.27;;;15.70;99.90;;;;;;4409459;32;20082;-63
2024/03/03 10:32:15;;;;;;;1.37;1.00;;;15.60;99.90;;;;;;4408615;32;20073;-61
2024/03/03 10:34:42;;;;;;;3.22;1.52;;;15.60;99.90;;;;;;4419803;32;20070;-62
2024/03/03 10:37:07;;;;;;;1.35;1.25;;;15.50;99.90;;;;;;4392340;32;20078;-62
2024/03/03 10:39:35;;;;;;;6.62;1.33;;;15.30;99.90;;;;;;4409269;32;20093;-62
2024/03/03 10:42:05;;;;;;;1.35;1.02;;;15.00;99.90;;;;;;4425298;32;20456;-62
2024/03/03 10:44:31;;;;;;;0.85;0.85;;;14.60;99.90;;;;;;4424168;32;20126;-62
2024/03/03 10:46:57;;;;;;;5.15;1.55;;;14.50;99.90;;;;;;4427199;32;20287;-62
2024/03/03 10:49:25;;;;;;;1.60;1.10;;;14.40;99.90;;;;;;4425911;32;20069;-62
2024/03/03 10:51:51;;;;;;;1.48;1.05;;;14.20;99.90;;;;;;4425777;32;20089;-62
2024/03/03 10:54:18;;;;;;;1.75;1.08;;;14.20;99.90;;;;;;4424948;32;20123;-62
2024/03/03 10:56:47;;;;;;;2.35;1.23;;;14.20;99.90;;;;;;4409220;32;20066;-63
2024/03/03 10:59:14;;;;;;;0.82;0.82;;;14.20;99.90;;;;;;4426462;32;20082;-62
2024/03/03 11:01:40;;;;;;;0.98;0.93;;;14.20;99.90;;;;;;4426750;32;20076;-62
2024/03/03 11:04:07;;;;;;;4.57;1.73;;;14.30;99.90;;;;;;4427146;32;20450;-62
2024/03/03 11:06:36;;;;;;;1.25;0.98;;;14.40;99.90;;;;;;4428904;32;20077;-63
2024/03/03 11:09:05;;;;;;;1.90;1.17;;;14.50;99.90;;;;;;4413584;32;20497;-62
2024/03/03 11:11:37;;;;;;;2.55;1.80;;;14.50;99.90;;;;;;4427105;32;20520;-61
2024/03/03 11:14:12;;;;;;;1.90;1.25;;;14.80;99.90;;;;;;4426629;32;20486;-62
2024/03/03 11:16:39;;;;;;;0.77;0.77;;;15.00;99.90;;;;;;4427948;32;20066;-62
2024/03/03 11:19:11;;;;;;;0.75;0.75;;;15.10;99.90;;;;;;4413574;32;20065;-62
2024/03/03 11:21:37;;;;;;;0.77;0.77;;;15.20;99.90;;;;;;4425628;32;20080;-62
2024/03/03 11:24:06;;;;;;;0.60;0.60;;;15.30;99.90;;;;;;4428342;32;20062;-63
2024/03/03 11:26:44;;;;;;;1.80;1.25;;;15.70;99.90;;;;;;4411667;32;20575;-62
2024/03/03 11:29:11;;;;;;;0.88;0.80;;;16.00;99.90;;;;;;4427398;32;20516;-62
2024/03/03 11:31:38;;;;;;;1.37;1.17;;;16.10;99.90;;;;;;4427435;32;20077;-62
2024/03/03 11:34:05;;;;;;;0.75;0.75;;;16.20;99.90;;;;;;4427900;32;20065;-62
2024/03/03 11:36:31;;;;;;;6.37;2.05;;;16.30;99.90;;;;;;4425101;32;20112;-63
2024/03/03 11:38:58;;;;;;;0.62;0.62;;;16.30;99.90;;;;;;4425796;32;20520;-62
2024/03/03 11:41:28;;;;;;;1.85;0.93;;;16.10;99.90;;;;;;4427010;32;20479;-63
2024/03/03 11:43:53;;;;;;;4.20;1.27;;;16.00;99.90;;;;;;4424601;32;20073;-63
2024/03/03 11:46:48;;;;;;;1.10;0.85;;;15.80;99.90;;;;;;4415724;32;20082;-63
2024/03/03 11:49:22;;;;;;;4.30;0.82;;;15.70;99.90;;;;;;4387575;32;20522;-62
2024/03/03 11:51:48;;;;;;;5.57;1.00;;;15.90;99.90;;;;;;4425831;32;96173;-62
2024/03/03 11:54:28;;;;;;;0.65;0.65;;;16.20;99.90;;;;;;4413745;32;20069;-62
2024/03/03 11:56:58;;;;;;;0.62;0.62;;;16.10;99.90;;;;;;4416401;32;20402;-63
2024/03/03 11:59:30;;;;;;;0.80;0.80;;;16.00;99.90;;;;;;4412886;32;20068;-63
2024/03/03 12:01:58;;;;;;;1.08;0.90;;;15.80;99.90;;;;;;4429057;32;20086;-62
2024/03/03 12:04:23;;;;;;;0.88;0.80;;;15.80;99.90;;;;;;4431023;32;20057;-63
2024/03/03 12:06:49;;;;;;;3.80;1.25;;;15.60;99.90;;;;;;4424336;32;20061;-63
2024/03/03 12:09:17;;;;;;;2.05;1.23;;;15.40;99.90;;;;;;4413395;32;20082;-63
2024/03/03 12:11:42;;;;;;;0.82;0.82;;;15.20;99.90;;;;;;4429528;32;20093;-61
2024/03/03 12:14:08;;;;;;;0.93;0.90;;;15.20;99.90;;;;;;4413450;32;20069;-62
2024/03/03 12:16:34;;;;;;;3.10;1.45;;;15.10;99.90;;;;;;4430997;32;20208;-61
2024/03/03 12:19:01;;;;;;;1.02;0.85;;;15.00;99.90;;;;;;4416791;32;20493;-61
2024/03/03 12:21:27;;;;;;;7.85;0.85;;;14.80;99.90;;;;;;4430881;32;20069;-62
2024/03/03 12:23:53;;;;;;;2.10;0.90;;;14.70;99.90;;;;;;4416405;32;20115;-62
2024/03/03 12:26:20;;;;;;;0.93;0.88;;;14.80;99.90;;;;;;4427043;32;20061;-62
2024/03/03 12:28:45;;;;;;;1.12;1.02;;;14.90;99.90;;;;;;4413955;32;20493;-61
2024/03/03 12:31:12;;;;;;;0.80;0.80;;;15.00;99.90;;;;;;4430348;32;20088;-63
2024/03/03 12:33:42;;;;;;;0.77;0.70;;;14.90;99.90;;;;;;4414077;32;20081;-62
2024/03/03 12:36:08;;;;;;;2.13;0.90;;;14.90;99.90;;;;;;4429449;32;20094;-61
2024/03/03 12:38:34;;;;;;;1.27;1.17;;;14.80;99.90;;;;;;4431107;32;20170;-61
2024/03/03 12:41:00;;;;;;;1.40;0.73;;;14.80;99.90;;;;;;4429145;32;20136;-61
2024/03/03 12:43:26;;;;;;;0.60;0.60;;;14.70;99.90;;;;;;4428998;32;20521;-63
2024/03/03 12:45:52;;;;;;;2.10;1.20;;;14.80;99.90;;;;;;4412404;32;20069;-62
2024/03/03 12:48:18;;;;;;;0.95;0.90;;;14.70;99.90;;;;;;4413746;32;20053;-62